Time;durP1;ratioP1;P1;durP2;ratioP2;P2;SDS_P1;SDS_P2;PMS_P1;PMS_P2;Temp;Humidity;BMP_temperature;BMP_pressure;BME280_temperature;BME280_humidity;BME280_pressure;Samples;Min_cycle;Max_cycle;Signal;HPM_P1;HPM_P2
2022/04/18 00:01:40;;;;;;;;;;;;;;;16.35;62.00;100858.75;5096929;28;1707;-59
2022/04/18 00:04:06;;;;;;;;;;;;;;;16.36;61.30;100854.28;5097209;28;1734;-59
2022/04/18 00:06:36;;;;;;;;;;;;;;;16.37;61.49;100853.31;5097211;28;1674;-60
2022/04/18 00:09:02;;;;;;;;;;;;;;;16.34;61.85;100835.72;5096898;28;1571;-59
2022/04/18 00:11:29;;;;;;;;;;;;;;;16.33;61.22;100835.81;5096167;28;1906;-60
2022/04/18 00:13:56;;;;;;;;;;;;;;;16.33;61.20;100828.66;5096316;28;1551;-59
2022/04/18 00:16:22;;;;;;;;;;;;;;;16.39;61.42;100840.69;5096294;28;1663;-60
2022/04/18 00:18:49;;;;;;;;;;;;;;;16.35;61.43;100842.75;5078704;28;1679;-60
2022/04/18 00:21:15;;;;;;;;;;;;;;;16.40;61.19;100855.75;5096921;28;1623;-60
2022/04/18 00:23:44;;;;;;;;;;;;;;;16.40;61.30;100845.06;5096743;28;1015;-59
2022/04/18 00:26:11;;;;;;;;;;;;;;;16.39;61.51;100846.88;5096507;28;1785;-59
2022/04/18 00:28:38;;;;;;;;;;;;;;;16.36;61.48;100854.28;5096378;28;1749;-60
2022/04/18 00:31:05;;;;;;;;;;;;;;;16.37;61.72;100853.31;5096483;28;1910;-60
2022/04/18 00:33:31;;;;;;;;;;;;;;;16.33;61.48;100844.66;5097062;28;1076;-59
2022/04/18 00:35:58;;;;;;;;;;;;;;;16.36;61.25;100838.28;5096598;28;1711;-60
2022/04/18 00:38:24;;;;;;;;;;;;;;;16.33;61.12;100839.34;5095997;28;1992;-59
2022/04/18 00:40:52;;;;;;;;;;;;;;;16.36;61.24;100847.13;5096422;28;1790;-60
2022/04/18 00:43:19;;;;;;;;;;;;;;;16.35;61.59;100836.56;5096341;28;1650;-60
2022/04/18 00:45:45;;;;;;;;;;;;;;;16.34;61.72;100841.06;5096282;28;1579;-60
2022/04/18 00:48:12;;;;;;;;;;;;;;;16.33;61.86;100846.50;5096744;28;1049;-61
2022/04/18 00:50:40;;;;;;;;;;;;;;;16.31;62.20;100819.91;5095999;28;1902;-60
2022/04/18 00:53:07;;;;;;;;;;;;;;;16.35;61.26;100820.53;5096075;28;1389;-60
2022/04/18 00:55:35;;;;;;;;;;;;;;;16.34;61.66;100835.72;5095847;28;1586;-61
2022/04/18 00:58:03;;;;;;;;;;;;;;;16.38;61.58;100839.84;5096091;28;1599;-60
2022/04/18 01:00:29;;;;;;;;;;;;;;;16.37;61.81;100824.78;5095492;28;1568;-61
2022/04/18 01:02:56;;;;;;;;;;;;;;;16.37;61.72;100823.94;5096071;28;1426;-60
2022/04/18 01:05:22;;;;;;;;;;;;;;;16.33;61.31;100812.66;5095801;28;1539;-61
2022/04/18 01:07:49;;;;;;;;;;;;;;;16.34;61.34;100824.19;5095712;28;1460;-60
2022/04/18 01:10:15;;;;;;;;;;;;;;;16.35;61.81;100833.88;5095663;28;1463;-61
2022/04/18 01:12:43;;;;;;;;;;;;;;;16.36;61.21;100814.25;5095418;28;1969;-60
2022/04/18 01:15:10;;;;;;;;;;;;;;;16.32;61.51;100826.13;5095750;28;1650;-60
2022/04/18 01:17:37;;;;;;;;;;;;;;;16.32;61.46;100820.78;5096077;28;2049;-61
2022/04/18 01:20:04;;;;;;;;;;;;;;;16.31;61.17;100819.91;5095499;28;1406;-61
2022/04/18 01:22:33;;;;;;;;;;;;;;;16.29;61.31;100822.72;5095581;28;1579;-60
2022/04/18 01:30:27;;;;;;;;;;;;;;;16.31;61.82;100819.91;5095149;28;1971;-61
2022/04/18 01:32:54;;;;;;;;;;;;;;;16.34;61.08;100813.53;5095984;28;983;-60
2022/04/18 01:35:20;;;;;;;;;;;;;;;16.28;61.55;100799.66;5095408;28;1346;-61
2022/04/18 01:37:48;;;;;;;;;;;;;;;16.25;61.12;100794.56;5095028;28;1384;-61
2022/04/18 01:40:15;;;;;;;;;;;;;;;16.29;61.83;100806.72;5095283;28;1580;-60
2022/04/18 01:42:42;;;;;;;;;;;;;;;16.29;61.23;100806.72;5094653;28;1313;-61
2022/04/18 01:45:09;;;;;;;;;;;;;;;16.26;61.92;100806.94;5095174;28;1603;-61
2022/04/18 01:47:35;;;;;;;;;;;;;;;16.27;61.46;100791.78;5095529;28;1080;-60
2022/04/18 01:50:02;;;;;;;;;;;;;;;16.31;61.22;100787.91;5095011;28;1575;-60
2022/04/18 01:52:28;;;;;;;;;;;;;;;16.27;61.28;100781.97;5094851;28;1969;-61
2022/04/18 01:54:56;;;;;;;;;;;;;;;16.29;62.17;100777.38;5095066;28;1516;-61
2022/04/18 01:57:23;;;;;;;;;;;;;;;16.29;62.10;100772.03;5094953;28;1461;-61
2022/04/18 01:59:49;;;;;;;;;;;;;;;16.32;61.61;100778.09;5095333;28;981;-59
2022/04/18 02:02:17;;;;;;;;;;;;;;;16.28;61.90;100767.66;5198163;22;2074;-35
2022/04/18 02:04:43;;;;;;;;;;;;;;;16.26;61.75;100774.91;5093376;28;2022;-35
2022/04/18 02:07:10;;;;;;;;;;;;;;;16.25;61.86;100757.22;5093726;28;1686;-35
2022/04/18 02:09:38;;;;;;;;;;;;;;;16.24;61.97;100757.34;5078877;28;1867;-35
2022/04/18 02:12:07;;;;;;;;;;;;;;;16.27;62.39;100757.09;5090722;28;1980;-35
2022/04/18 02:14:34;;;;;;;;;;;;;;;16.27;61.34;100757.09;5089073;28;1487;-35
2022/04/18 02:17:01;;;;;;;;;;;;;;;16.27;61.11;100754.41;5094214;28;1071;-35
2022/04/18 02:19:28;;;;;;;;;;;;;;;16.29;61.16;100761.34;5093294;28;1904;-34
2022/04/18 02:21:56;;;;;;;;;;;;;;;16.27;61.72;100765.97;5093029;28;1349;-35
2022/04/18 02:24:24;;;;;;;;;;;;;;;16.28;61.35;100751.63;5092729;28;1458;-35
2022/04/18 02:26:50;;;;;;;;;;;;;;;16.26;62.02;100763.41;5093487;28;1673;-34
2022/04/18 02:29:20;;;;;;;;;;;;;;;16.25;61.91;100757.22;5077704;28;1669;-35
2022/04/18 02:34:30;;;;;;;;;;;;;;;16.26;61.69;100748.22;5093225;28;1752;-35
2022/04/18 02:36:56;;;;;;;;;;;;;;;16.26;61.48;100739.38;5093774;28;1898;-35
2022/04/18 02:39:26;;;;;;;;;;;;;;;16.28;61.76;100740.13;5099985;28;1099;-34
2022/04/18 02:41:53;;;;;;;;;;;;;;;16.25;62.16;100730.53;5099864;28;1807;-35
2022/04/18 02:44:20;;;;;;;;;;;;;;;16.21;61.45;100739.72;5099680;28;1689;-34
2022/04/18 02:46:47;;;;;;;;;;;;;;;16.23;62.25;100743.13;5095700;28;1737;-35
2022/04/18 02:49:14;;;;;;;;;;;;;;;16.24;62.27;100739.50;5099780;28;1442;-35
2022/04/18 02:51:41;;;;;;;;;;;;;;;16.23;62.07;100740.44;5098761;28;1905;-35
2022/04/18 02:54:07;;;;;;;;;;;;;;;16.22;61.25;100736.09;5098977;28;1678;-35
2022/04/18 02:56:34;;;;;;;;;;;;;;;16.23;61.65;100743.13;5100144;28;1065;-35
2022/04/18 02:59:00;;;;;;;;;;;;;;;16.24;62.12;100741.31;5099236;28;2138;-35
2022/04/18 03:01:28;;;;;;;;;;;;;;;16.23;61.82;100737.78;5103319;28;1789;-35
2022/04/18 03:03:54;;;;;;;;;;;;;;;16.21;61.98;100739.72;5118715;28;1966;-35
2022/04/18 03:06:21;;;;;;;;;;;;;;;16.19;62.27;100741.66;5112825;28;1373;-35
2022/04/18 03:08:47;;;;;;;;;;;;;;;16.24;62.32;100744.84;5110380;28;990;-35
2022/04/18 03:11:14;;;;;;;;;;;;;;;16.22;61.55;100737.94;5119492;28;2105;-35
2022/04/18 03:13:44;;;;;;;;;;;;;;;16.20;61.70;100738.03;5114625;28;2074;-35
2022/04/18 03:16:11;;;;;;;;;;;;;;;16.18;61.09;100745.31;5108437;28;1884;-34
2022/04/18 03:18:38;;;;;;;;;;;;;;;16.20;61.26;100747.88;5119377;28;1627;-35
2022/04/18 03:21:06;;;;;;;;;;;;;;;16.21;61.74;100745.06;5111781;28;1138;-34
2022/04/18 03:23:32;;;;;;;;;;;;;;;16.18;61.65;100750.66;5109088;28;2012;-34
2022/04/18 03:25:59;;;;;;;;;;;;;;;16.21;61.24;100739.72;5118764;28;1705;-35
2022/04/18 03:28:26;;;;;;;;;;;;;;;16.23;61.75;100747.63;5110630;28;1633;-35
2022/04/18 03:30:52;;;;;;;;;;;;;;;16.19;61.19;100752.31;5111998;28;1699;-34
2022/04/18 03:33:19;;;;;;;;;;;;;;;16.24;61.45;100754.66;5117213;28;1976;-35
2022/04/18 03:41:11;;;;;;;;;;;;;;;16.21;61.84;100760.22;5111447;28;1965;-34
2022/04/18 03:43:38;;;;;;;;;;;;;;;16.20;61.21;100762.06;5113405;28;1672;-35
2022/04/18 03:46:05;;;;;;;;;;;;;;;16.23;61.66;100767.13;5113208;28;1774;-35
2022/04/18 03:48:31;;;;;;;;;;;;;;;16.20;61.22;100764.72;5119365;28;1138;-35
2022/04/18 03:50:59;;;;;;;;;;;;;;;16.23;61.60;100771.63;5106023;28;1892;-35
2022/04/18 03:53:26;;;;;;;;;;;;;;;16.19;61.57;100787.00;5104715;28;1980;-35
2022/04/18 03:55:52;;;;;;;;;;;;;;;16.21;61.75;100770.91;5114872;28;1653;-35
2022/04/18 03:58:18;;;;;;;;;;;;;;;16.16;61.25;100765.91;5107554;28;1754;-35
2022/04/18 04:00:45;;;;;;;;;;;;;;;16.18;61.81;100768.47;5109360;28;1646;-35
2022/04/18 04:03:12;;;;;;;;;;;;;;;16.18;61.56;100774.66;5105108;28;1504;-34
2022/04/18 04:05:38;;;;;;;;;;;;;;;16.19;61.45;100788.84;5106904;28;1669;-35
2022/04/18 04:08:07;;;;;;;;;;;;;;;16.19;61.41;100772.84;5104973;28;1407;-35
2022/04/18 04:10:34;;;;;;;;;;;;;;;16.21;61.28;100773.56;5114794;28;1455;-35
2022/04/18 04:13:00;;;;;;;;;;;;;;;16.20;61.53;100762.06;5109416;28;1909;-35
2022/04/18 04:15:27;;;;;;;;;;;;;;;16.19;61.57;100778.16;5109125;28;1821;-35
2022/04/18 04:17:53;;;;;;;;;;;;;;;16.19;61.52;100781.69;5109532;28;1088;-35
2022/04/18 04:20:22;;;;;;;;;;;;;;;16.16;61.14;100773.09;5107619;28;2072;-35
2022/04/18 04:22:49;;;;;;;;;;;;;;;16.20;60.87;100779.88;5107947;28;1608;-35
2022/04/18 04:25:16;;;;;;;;;;;;;;;16.18;60.93;100766.66;5112257;28;1423;-35
2022/04/18 04:27:43;;;;;;;;;;;;;;;16.16;61.07;100762.41;5112234;28;1670;-35
2022/04/18 04:30:10;;;;;;;;;;;;;;;16.14;61.92;100746.50;5107979;28;1794;-34
2022/04/18 04:32:36;;;;;;;;;;;;;;;16.16;61.82;100752.59;5108369;28;1906;-34
2022/04/18 04:35:03;;;;;;;;;;;;;;;16.13;61.77;100752.81;5109520;28;2064;-35
2022/04/18 04:37:29;;;;;;;;;;;;;;;16.16;61.08;100755.25;5108759;28;1808;-35
2022/04/18 04:39:56;;;;;;;;;;;;;;;16.13;62.23;100747.47;5107227;28;1616;-34
2022/04/18 04:42:23;;;;;;;;;;;;;;;16.17;62.12;100761.44;5108681;28;1759;-35
2022/04/18 04:44:50;;;;;;;;;;;;;;;16.15;61.87;100739.34;5107457;28;1074;-34
2022/04/18 04:47:16;;;;;;;;;;;;;;;16.15;60.77;100745.53;5115320;28;1741;-35
2022/04/18 04:49:43;;;;;;;;;;;;;;;16.13;61.35;100744.78;5111495;28;1905;-35
2022/04/18 04:52:09;;;;;;;;;;;;;;;16.17;61.99;100748.09;5107248;28;1905;-35
2022/04/18 04:54:36;;;;;;;;;;;;;;;16.17;61.11;100746.25;5106901;28;1469;-35
2022/04/18 04:57:02;;;;;;;;;;;;;;;16.16;61.95;100736.56;5112605;28;1762;-35
2022/04/18 04:59:30;;;;;;;;;;;;;;;16.18;62.00;100753.31;5109679;28;1886;-35
2022/04/18 05:01:56;;;;;;;;;;;;;;;16.19;61.01;100741.66;5105057;28;1416;-34
2022/04/18 05:04:25;;;;;;;;;;;;;;;16.16;61.30;100731.25;5112409;28;1649;-34
2022/04/18 05:06:51;;;;;;;;;;;;;;;16.16;62.22;100728.56;5106458;28;1719;-35
2022/04/18 05:09:18;;;;;;;;;;;;;;;16.17;61.12;100724.06;5106872;28;1296;-35
2022/04/18 05:11:46;;;;;;;;;;;;;;;16.15;62.04;100726.84;5113967;28;1902;-35
2022/04/18 05:14:13;;;;;;;;;;;;;;;16.18;61.16;100739.13;5107672;28;942;-35
2022/04/18 05:16:40;;;;;;;;;;;;;;;16.18;60.96;100741.81;5103482;28;1666;-35
2022/04/18 05:19:07;;;;;;;;;;;;;;;16.15;61.92;100737.53;5111738;28;1777;-35
2022/04/18 05:21:34;;;;;;;;;;;;;;;16.14;61.37;100741.19;5105353;28;1781;-35
2022/04/18 05:24:01;;;;;;;;;;;;;;;16.17;61.21;100743.59;5106708;28;1515;-35
2022/04/18 05:26:28;;;;;;;;;;;;;;;16.17;60.97;100748.09;5113650;28;1051;-34
2022/04/18 05:28:54;;;;;;;;;;;;;;;16.16;61.20;100743.75;5105566;28;1624;-35
2022/04/18 05:31:20;;;;;;;;;;;;;;;16.13;61.81;100741.28;5103530;28;1823;-34
2022/04/18 05:33:48;;;;;;;;;;;;;;;16.11;62.20;100736.06;5113492;28;1971;-35
2022/04/18 05:36:15;;;;;;;;;;;;;;;16.13;61.15;100739.47;5107141;28;1066;-36
2022/04/18 05:38:41;;;;;;;;;;;;;;;16.14;61.01;100733.19;5103848;28;1328;-34
2022/04/18 05:41:08;;;;;;;;;;;;;;;16.16;60.83;100733.91;5106171;28;1844;-35
2022/04/18 05:43:34;;;;;;;;;;;;;;;16.17;61.27;100738.25;5108099;28;1824;-34
2022/04/18 05:46:00;;;;;;;;;;;;;;;16.15;61.29;100732.19;5108106;28;1615;-34
2022/04/18 05:48:27;;;;;;;;;;;;;;;16.14;61.09;100732.34;5114759;28;1140;-34
2022/04/18 05:50:55;;;;;;;;;;;;;;;16.15;61.51;100747.34;5105505;28;1741;-35
2022/04/18 05:53:24;;;;;;;;;;;;;;;16.13;61.26;100741.28;5102810;28;1921;-34
2022/04/18 05:55:51;;;;;;;;;;;;;;;16.13;61.85;100736.78;5109369;28;1785;-35
2022/04/18 05:58:17;;;;;;;;;;;;;;;16.16;61.42;100739.25;5105435;28;2062;-34
2022/04/18 06:00:44;;;;;;;;;;;;;;;16.14;60.99;100727.84;5107549;28;1564;-34
2022/04/18 06:03:11;;;;;;;;;;;;;;;16.14;61.36;100735.00;5110112;28;1435;-34
2022/04/18 06:05:38;;;;;;;;;;;;;;;16.15;61.67;100736.69;5105390;28;1749;-34
2022/04/18 06:08:06;;;;;;;;;;;;;;;16.15;61.30;100750.88;5104377;28;1597;-34
2022/04/18 06:10:33;;;;;;;;;;;;;;;16.10;62.32;100724.56;5112008;28;1811;-35
2022/04/18 06:13:00;;;;;;;;;;;;;;;16.14;60.78;100733.19;5105887;28;1976;-34
2022/04/18 06:15:26;;;;;;;;;;;;;;;16.14;61.23;100733.19;5107299;28;1517;-35
2022/04/18 06:17:52;;;;;;;;;;;;;;;16.13;61.25;100725.28;5107218;28;1166;-34
2022/04/18 06:20:19;;;;;;;;;;;;;;;16.10;61.09;100739.72;5104887;28;1832;-34
2022/04/18 06:22:45;;;;;;;;;;;;;;;16.14;61.22;100745.66;5106598;28;1347;-35
2022/04/18 06:25:13;;;;;;;;;;;;;;;16.15;61.13;100744.69;5109493;28;2142;-35
2022/04/18 06:27:40;;;;;;;;;;;;;;;16.15;61.00;100737.53;5109789;28;1641;-35
2022/04/18 06:30:07;;;;;;;;;;;;;;;16.16;61.70;100757.91;5105671;28;1867;-35
2022/04/18 06:32:35;;;;;;;;;;;;;;;16.14;60.85;100745.66;5105807;28;1977;-35
2022/04/18 06:35:02;;;;;;;;;;;;;;;16.14;61.51;100749.19;5106645;28;1673;-34
2022/04/18 06:37:28;;;;;;;;;;;;;;;16.16;61.66;100754.41;5107088;28;1446;-35
2022/04/18 06:39:55;;;;;;;;;;;;;;;16.11;62.01;100733.41;5104597;28;1362;-35
2022/04/18 06:42:23;;;;;;;;;;;;;;;16.14;61.25;100743.84;5106844;28;1847;-35
2022/04/18 06:44:49;;;;;;;;;;;;;;;16.14;61.67;100757.19;5105524;28;1066;-34
2022/04/18 06:47:17;;;;;;;;;;;;;;;16.12;60.99;100739.59;5112960;28;1997;-35
2022/04/18 06:49:43;;;;;;;;;;;;;;;16.14;61.10;100759.84;5109112;28;1970;-35
2022/04/18 06:52:10;;;;;;;;;;;;;;;16.16;62.02;100751.75;5105829;28;1972;-35
2022/04/18 06:54:36;;;;;;;;;;;;;;;16.14;61.14;100754.53;5104981;28;1685;-35
2022/04/18 06:57:02;;;;;;;;;;;;;;;16.16;61.51;100760.59;5110320;28;1750;-34
2022/04/18 06:59:31;;;;;;;;;;;;;;;16.14;62.08;100743.84;5106820;28;1747;-35
2022/04/18 07:01:58;;;;;;;;;;;;;;;16.17;61.08;100751.59;5101601;28;1614;-35
2022/04/18 07:04:24;;;;;;;;;;;;;;;16.15;61.75;100742.03;5109711;28;1906;-35
2022/04/18 07:06:51;;;;;;;;;;;;;;;16.12;61.54;100756.44;5105090;28;1780;-35
2022/04/18 07:09:17;;;;;;;;;;;;;;;16.14;61.07;100754.53;5105072;28;1771;-35
2022/04/18 07:11:45;;;;;;;;;;;;;;;16.12;61.96;100740.44;5112201;28;1847;-35
2022/04/18 07:14:11;;;;;;;;;;;;;;;16.13;61.62;100752.81;5106307;28;1979;-35
2022/04/18 07:16:39;;;;;;;;;;;;;;;16.14;61.04;100749.19;5101991;28;1753;-35
2022/04/18 07:19:06;;;;;;;;;;;;;;;16.15;61.29;100750.03;5109951;28;1900;-35
2022/04/18 07:21:32;;;;;;;;;;;;;;;16.15;61.13;100740.19;5106680;28;1403;-35
2022/04/18 07:23:59;;;;;;;;;;;;;;;16.15;61.67;100760.69;5104233;28;1592;-35
2022/04/18 07:26:25;;;;;;;;;;;;;;;16.16;61.47;100749.91;5116655;28;1097;-35
2022/04/18 07:28:53;;;;;;;;;;;;;;;16.15;61.47;100755.34;5108567;28;1834;-35
2022/04/18 07:31:19;;;;;;;;;;;;;;;16.13;61.01;100747.47;5105436;28;1629;-34
2022/04/18 07:33:47;;;;;;;;;;;;;;;16.13;62.08;100742.13;5115566;28;1914;-35
2022/04/18 07:36:13;;;;;;;;;;;;;;;16.18;60.80;100747.97;5109909;28;1088;-35
2022/04/18 07:38:52;;;;;;;;;;;;;;;16.18;61.92;100755.13;5106218;28;1932;-35
2022/04/18 07:41:19;;;;;;;;;;;;;;;16.14;61.32;100738.50;5107275;28;1732;-34
2022/04/18 07:43:46;;;;;;;;;;;;;;;16.13;61.31;100742.13;5112352;28;1661;-35
2022/04/18 07:46:12;;;;;;;;;;;;;;;16.11;61.97;100741.41;5112431;28;1684;-35
2022/04/18 07:48:39;;;;;;;;;;;;;;;16.10;61.28;100737.03;5116360;28;1697;-35
2022/04/18 07:53:51;;;;;;;;;;;;;;;16.14;60.88;100743.00;5112108;28;1913;-35
2022/04/18 07:56:17;;;;;;;;;;;;;;;16.17;61.65;100745.41;5114443;28;1642;-35
2022/04/18 07:58:44;;;;;;;;;;;;;;;16.15;61.46;100742.03;5107775;28;1812;-35
2022/04/18 08:01:10;;;;;;;;;;;;;;;16.17;61.59;100743.59;5105975;28;1944;-35
2022/04/18 08:03:37;;;;;;;;;;;;;;;16.14;62.06;100735.84;5115491;28;1846;-35
2022/04/18 08:06:03;;;;;;;;;;;;;;;16.16;61.32;100739.25;5110784;28;1094;-35
2022/04/18 08:08:31;;;;;;;;;;;;;;;16.17;60.99;100745.41;5112737;28;1778;-35
2022/04/18 08:10:58;;;;;;;;;;;;;;;16.16;61.03;100736.56;5109908;28;1733;-35
2022/04/18 08:13:24;;;;;;;;;;;;;;;16.18;60.52;100750.66;5112778;28;1905;-35
2022/04/18 08:15:51;;;;;;;;;;;;;;;16.17;61.88;100746.25;5107461;28;1661;-35
2022/04/18 08:18:17;;;;;;;;;;;;;;;16.17;60.77;100754.25;5108479;28;1082;-35
2022/04/18 08:20:44;;;;;;;;;;;;;;;16.20;60.74;100754.03;5107763;28;1797;-35
2022/04/18 08:23:10;;;;;;;;;;;;;;;16.19;60.78;100743.47;5105049;28;1935;-35
2022/04/18 08:25:38;;;;;;;;;;;;;;;16.18;60.97;100744.47;5115124;28;1606;-35
2022/04/18 08:28:05;;;;;;;;;;;;;;;16.19;60.80;100747.00;5108915;28;1530;-35
2022/04/18 08:30:32;;;;;;;;;;;;;;;16.19;60.52;100747.00;5109154;28;1757;-35
2022/04/18 08:32:58;;;;;;;;;;;;;;;16.18;61.49;100742.63;5110332;28;1967;-34
2022/04/18 08:35:24;;;;;;;;;;;;;;;16.19;61.38;100749.66;5106859;28;1773;-34
2022/04/18 08:37:51;;;;;;;;;;;;;;;16.18;61.88;100739.97;5107739;28;1789;-34
2022/04/18 08:40:18;;;;;;;;;;;;;;;16.20;60.85;100737.19;5109415;28;1707;-35
2022/04/18 08:42:46;;;;;;;;;;;;;;;16.21;60.86;100730.88;5109975;28;1681;-35
2022/04/18 08:45:13;;;;;;;;;;;;;;;16.21;62.00;100738.88;5104952;28;1612;-35
2022/04/18 08:53:09;;;;;;;;;;;;;;;16.23;60.68;100737.78;5104807;28;1963;-34
2022/04/18 08:55:36;;;;;;;;;;;;;;;16.22;60.69;100719.25;5114622;28;1469;-34
2022/04/18 08:58:04;;;;;;;;;;;;;;;16.23;61.75;100748.47;5108530;28;1731;-35
2022/04/18 09:00:30;;;;;;;;;;;;;;;16.20;61.52;100730.03;5108970;28;1966;-35
2022/04/18 09:02:56;;;;;;;;;;;;;;;16.21;60.57;100729.03;5109180;28;1518;-35
2022/04/18 09:05:23;;;;;;;;;;;;;;;16.21;60.54;100733.53;5106578;28;1761;-35
2022/04/18 09:07:57;;;;;;;;;;;;;;;16.21;60.88;100738.88;5109046;28;1626;-35
2022/04/18 09:10:24;;;;;;;;;;;;;;;16.22;61.24;100738.75;5108977;28;1851;-35
2022/04/18 09:12:51;;;;;;;;;;;;;;;16.21;60.93;100739.72;5110003;28;1971;-35
2022/04/18 09:15:29;;;;;;;;;;;;;;;16.22;60.75;100752.09;5108322;28;1630;-35
2022/04/18 09:18:06;;;;;;;;;;;;;;;16.19;60.78;100739.00;5101492;28;1071;-35
2022/04/18 09:20:40;;;;;;;;;;;;;;;16.19;61.61;100747.00;5106240;28;1822;-34
2022/04/18 09:23:07;;;;;;;;;;;;;;;16.24;60.79;100744.00;5104686;28;1944;-34
2022/04/18 09:25:37;;;;;;;;;;;;;;;16.21;61.55;100734.38;5113243;28;1570;-34
2022/04/18 09:28:04;;;;;;;;;;;;;;;16.19;60.97;100736.31;5107576;28;1753;-35
2022/04/18 09:30:33;;;;;;;;;;;;;;;16.21;61.15;100750.41;5108368;28;1758;-35
2022/04/18 09:33:01;;;;;;;;;;;;;;;16.18;60.56;100739.97;5109039;28;1992;-35
2022/04/18 09:35:28;;;;;;;;;;;;;;;16.19;60.90;100744.31;5104937;28;1815;-35
2022/04/18 09:37:55;;;;;;;;;;;;;;;16.19;61.33;100746.16;5105460;28;1527;-35
2022/04/18 09:40:24;;;;;;;;;;;;;;;16.19;61.07;100757.66;5108152;28;1312;-35
2022/04/18 09:42:52;;;;;;;;;;;;;;;16.19;60.50;100752.31;5108487;28;1448;-35
2022/04/18 09:45:19;;;;;;;;;;;;;;;16.20;61.03;100748.72;5105866;28;1598;-34
2022/04/18 09:47:53;;;;;;;;;;;;;;;16.17;61.13;100745.41;5114531;28;1322;-34
2022/04/18 09:53:01;;;;;;;;;;;;;;;16.17;60.68;100754.25;5106130;28;2251;-35
2022/04/18 09:55:29;;;;;;;;;;;;;;;16.18;61.55;100750.66;5113918;28;1482;-34
2022/04/18 09:58:01;;;;;;;;;;;;;;;16.15;60.71;100742.88;5108350;28;1713;-35
2022/04/18 10:00:28;;;;;;;;;;;;;;;16.16;60.52;100741.91;5107849;28;1648;-35
2022/04/18 10:02:56;;;;;;;;;;;;;;;16.16;61.05;100752.59;5107637;28;1399;-34
2022/04/18 10:05:23;;;;;;;;;;;;;;;16.18;60.83;100737.31;5105653;28;1979;-35
2022/04/18 10:07:50;;;;;;;;;;;;;;;16.17;61.47;100737.41;5106391;28;1607;-34
2022/04/18 10:10:17;;;;;;;;;;;;;;;16.14;60.53;100737.66;5110171;28;1615;-35
2022/04/18 10:12:43;;;;;;;;;;;;;;;16.16;60.69;100736.56;5109766;28;1688;-35
2022/04/18 10:15:10;;;;;;;;;;;;;;;16.15;61.71;100734.84;5106184;28;1906;-35
2022/04/18 10:17:39;;;;;;;;;;;;;;;16.14;61.20;100727.84;5106431;28;1092;-35
2022/04/18 10:20:15;;;;;;;;;;;;;;;16.18;60.50;100739.13;5106628;28;1925;-35
2022/04/18 10:22:56;;;;;;;;;;;;;;;16.17;60.67;100732.91;5103210;28;1646;-35
2022/04/18 10:25:32;;;;;;;;;;;;;;;16.19;60.72;100741.66;5108129;28;1773;-34
2022/04/18 10:28:04;;;;;;;;;;;;;;;16.19;61.01;100740.81;5107641;28;1835;-35
2022/04/18 10:30:32;;;;;;;;;;;;;;;16.17;60.81;100730.25;5107413;28;1850;-35
2022/04/18 10:32:59;;;;;;;;;;;;;;;16.17;60.81;100732.06;5108373;28;1073;-34
2022/04/18 10:35:27;;;;;;;;;;;;;;;16.18;61.00;100733.78;5105181;28;1980;-35
2022/04/18 10:37:55;;;;;;;;;;;;;;;16.19;60.82;100728.31;5107966;28;1670;-35
2022/04/18 10:40:21;;;;;;;;;;;;;;;16.17;60.44;100730.25;5106184;28;1894;-35
2022/04/18 10:42:48;;;;;;;;;;;;;;;16.20;60.42;100732.69;5107640;28;1633;-35
2022/04/18 10:45:15;;;;;;;;;;;;;;;16.16;61.67;100731.25;5105199;28;1691;-35
2022/04/18 10:48:11;;;;;;;;;;;;;;;16.19;60.65;100730.16;5113584;28;1079;-34
2022/04/18 10:50:43;;;;;;;;;;;;;;;16.17;60.54;100727.59;5022691;28;1828;-35
2022/04/18 10:53:28;;;;;;;;;;;;;;;16.19;60.52;100731.00;5084309;28;1792;-35
2022/04/18 10:56:11;;;;;;;;;;;;;;;16.19;60.81;100728.31;5094860;28;1747;-35
2022/04/18 10:58:38;;;;;;;;;;;;;;;16.19;60.95;100724.81;5105522;28;1964;-35
2022/04/18 11:01:06;;;;;;;;;;;;;;;16.17;61.55;100721.41;5107881;28;1834;-35
2022/04/18 11:03:41;;;;;;;;;;;;;;;16.19;61.12;100727.47;5116743;28;1231;-35
2022/04/18 11:06:32;;;;;;;;;;;;;;;16.18;60.96;100728.47;5110214;28;1058;-35
2022/04/18 11:09:01;;;;;;;;;;;;;;;16.18;61.49;100713.28;5107081;28;1447;-35
2022/04/18 11:11:33;;;;;;;;;;;;;;;16.20;60.61;100708.69;5117303;28;1066;-34
2022/04/18 11:14:00;;;;;;;;;;;;;;;16.20;60.78;100711.34;5108538;28;1910;-35
2022/04/18 11:16:44;;;;;;;;;;;;;;;16.20;60.80;100713.19;5105850;28;1983;-35
2022/04/18 11:19:18;;;;;;;;;;;;;;;16.18;60.93;100713.28;5113289;28;1890;-35
2022/04/18 11:22:08;;;;;;;;;;;;;;;16.21;61.46;100723.72;5109414;28;1673;-35
2022/04/18 11:24:37;;;;;;;;;;;;;;;16.18;60.62;100709.78;5094217;28;2053;-35
2022/04/18 11:27:07;;;;;;;;;;;;;;;16.19;61.31;100703.47;5114218;28;1742;-35
2022/04/18 11:29:34;;;;;;;;;;;;;;;16.16;61.55;100704.56;5106845;28;1830;-35
2022/04/18 11:32:00;;;;;;;;;;;;;;;16.18;60.55;100709.78;5109489;28;1153;-35
2022/04/18 11:34:27;;;;;;;;;;;;;;;16.17;60.63;100700.91;5114171;28;2375;-34
2022/04/18 11:36:55;;;;;;;;;;;;;;;16.19;60.78;100703.47;5108625;28;1690;-35
2022/04/18 11:39:22;;;;;;;;;;;;;;;16.20;60.18;100713.19;5109172;28;1165;-35
2022/04/18 11:41:50;;;;;;;;;;;;;;;16.18;60.47;100696.44;5108057;28;1761;-35
2022/04/18 11:44:18;;;;;;;;;;;;;;;16.16;60.54;100691.22;5105013;28;1550;-34
2022/04/18 11:46:45;;;;;;;;;;;;;;;16.23;61.64;100688.91;5116335;28;1721;-35
2022/04/18 11:49:12;;;;;;;;;;;;;;;16.22;60.51;100703.25;5113542;28;1773;-35
2022/04/18 11:51:39;;;;;;;;;;;;;;;16.22;61.09;100688.06;5109118;28;1637;-35
2022/04/18 11:54:05;;;;;;;;;;;;;;;16.25;61.53;100697.66;5107450;28;1909;-35
2022/04/18 11:56:31;;;;;;;;;;;;;;;16.23;60.24;100689.75;5116938;28;1065;-35
2022/04/18 11:59:03;;;;;;;;;;;;;;;16.23;61.31;100703.09;5107642;28;1784;-35
2022/04/18 12:06:58;;;;;;;;;;;;;;;16.23;60.50;100688.91;5107911;28;1637;-34
2022/04/18 12:09:25;;;;;;;;;;;;;;;16.22;61.24;100685.41;5108188;28;1678;-35
2022/04/18 12:11:52;;;;;;;;;;;;;;;16.23;60.64;100688.91;5114230;28;1805;-34
2022/04/18 12:14:20;;;;;;;;;;;;;;;16.21;60.98;100697.03;5106606;28;1941;-35
2022/04/18 12:16:47;;;;;;;;;;;;;;;16.22;60.70;100693.41;5105898;28;999;-35
2022/04/18 12:19:15;;;;;;;;;;;;;;;16.22;60.42;100688.06;5112934;28;1939;-34
2022/04/18 12:21:42;;;;;;;;;;;;;;;16.22;60.90;100687.22;5108953;28;1794;-35
2022/04/18 12:24:08;;;;;;;;;;;;;;;16.22;61.50;100688.06;5107073;28;2039;-35
2022/04/18 12:26:35;;;;;;;;;;;;;;;16.20;60.38;100678.50;5115980;28;1079;-35
2022/04/18 12:29:02;;;;;;;;;;;;;;;16.21;60.38;100678.34;5107980;28;1087;-35
2022/04/18 12:31:30;;;;;;;;;;;;;;;16.23;60.98;100684.41;5104991;28;1781;-35
2022/04/18 12:33:57;;;;;;;;;;;;;;;16.19;60.82;100669.63;5114061;28;1989;-35
2022/04/18 12:36:24;;;;;;;;;;;;;;;16.23;60.62;100671.06;5108508;28;1609;-34
2022/04/18 12:38:51;;;;;;;;;;;;;;;16.24;60.73;100675.47;5106420;28;1082;-35
2022/04/18 12:41:26;;;;;;;;;;;;;;;16.22;60.55;100665.88;5106787;28;1900;-35
2022/04/18 12:43:53;;;;;;;;;;;;;;;16.21;60.40;100651.69;5110703;28;1471;-35
2022/04/18 12:46:23;;;;;;;;;;;;;;;16.24;60.52;100658.63;5112138;28;1622;-35
2022/04/18 12:48:51;;;;;;;;;;;;;;;16.23;61.22;100656.91;5114664;28;1508;-35
2022/04/18 12:51:19;;;;;;;;;;;;;;;16.23;61.04;100662.22;5105606;28;1618;-36
2022/04/18 12:53:46;;;;;;;;;;;;;;;16.20;60.50;100649.16;5104869;28;1073;-35
2022/04/18 12:56:13;;;;;;;;;;;;;;;16.20;60.36;100642.00;5114854;28;1968;-35
2022/04/18 12:58:40;;;;;;;;;;;;;;;16.24;61.05;100667.47;5109620;28;2021;-35
2022/04/18 13:01:07;;;;;;;;;;;;;;;16.24;60.51;100656.78;5105155;28;1423;-35
2022/04/18 13:03:41;;;;;;;;;;;;;;;16.22;61.09;100656.06;5114522;28;1303;-35
2022/04/18 13:06:09;;;;;;;;;;;;;;;16.22;61.29;100650.72;5107452;28;1078;-35
2022/04/18 13:08:37;;;;;;;;;;;;;;;16.19;60.62;100650.94;5104204;28;1990;-35
2022/04/18 13:11:03;;;;;;;;;;;;;;;16.21;60.79;100653.50;5114891;28;1784;-35
2022/04/18 13:13:30;;;;;;;;;;;;;;;16.21;60.92;100661.50;5105278;28;1761;-35
2022/04/18 13:15:56;;;;;;;;;;;;;;;16.20;60.61;100650.00;5106396;28;1909;-35
2022/04/18 13:18:25;;;;;;;;;;;;;;;16.21;60.66;100648.16;5112921;28;1007;-35
2022/04/18 13:20:51;;;;;;;;;;;;;;;16.27;60.44;100659.22;5106459;28;1793;-35